Terminal Aerodrome Forecast
Issued by NWS Charleston, WV

Current Version | Previous Version | Graphics & Text | Print | Product List | Glossary On
Versions: 1 2 3 4 5 6 7 8 9 10 11 12 13 14 15 16 17 18 19 20 21 22 23 24 25 26 27 28
000
FTUS41 KRLX 022200 AAD
TAFBKW
TAF AMD
KBKW 022219Z 0222/0318 18005KT P6SM SCT040 BKN100
      TEMPO 0223/0301 2SM +TSRA BR BKN015CB OVC025
     FM030100 26004KT P6SM VCTS BKN040CB
     FM030300 23004KT P6SM BKN015
     FM030500 25004KT P6SM BKN010
     FM030900 00000KT P6SM BKN008
     FM031600 29004KT P6SM BKN040=

USA.gov is the U.S. government's official web portal to all federal, state and local government web resources and services.